createdAt,value
2022-11-21T00:00:59.867Z,32.70
2022-11-21T00:03:26.687Z,31.50
2022-11-21T00:05:53.467Z,27.23
2022-11-21T00:08:22.196Z,28.83
2022-11-21T00:10:49.225Z,33.93
2022-11-21T00:13:20.945Z,26.80
2022-11-21T00:15:48.442Z,27.10
2022-11-21T00:18:15.787Z,31.10
2022-11-21T00:20:43.855Z,27.73
2022-11-21T00:23:11.164Z,30.77
2022-11-21T00:25:38.706Z,31.33
2022-11-21T00:28:05.825Z,28.90
2022-11-21T00:30:32.577Z,26.07
2022-11-21T00:32:59.561Z,31.93
2022-11-21T00:35:27.081Z,28.97
2022-11-21T00:37:53.860Z,34.80
2022-11-21T00:40:20.603Z,26.23
2022-11-21T00:42:47.220Z,32.03
2022-11-21T00:45:13.916Z,27.60
2022-11-21T00:47:40.802Z,25.57
2022-11-21T00:50:07.661Z,26.23
2022-11-21T00:52:34.441Z,27.97
2022-11-21T00:55:01.079Z,27.00
2022-11-21T00:57:27.641Z,24.63
2022-11-21T00:59:54.420Z,27.70
2022-11-21T01:02:21.229Z,24.20
2022-11-21T01:04:48.048Z,24.03
2022-11-21T01:07:15.213Z,24.27
2022-11-21T01:09:41.906Z,27.83
2022-11-21T01:12:08.616Z,24.40
2022-11-21T01:14:35.271Z,27.17
2022-11-21T01:17:01.880Z,23.03
2022-11-21T01:19:28.727Z,26.10
2022-11-21T01:21:55.340Z,25.73
2022-11-21T01:24:22.044Z,26.43
2022-11-21T01:26:50.872Z,24.50
2022-11-21T01:29:17.872Z,29.37
2022-11-21T01:31:45.484Z,28.10
2022-11-21T01:34:12.355Z,26.67
2022-11-21T01:36:38.980Z,24.70
2022-11-21T01:39:07.285Z,23.53
2022-11-21T01:41:41.871Z,22.83
2022-11-21T01:44:45.289Z,27.87
2022-11-21T01:47:13.000Z,27.60
2022-11-21T01:49:42.206Z,26.47
2022-11-21T01:52:18.001Z,29.80
2022-11-21T01:55:02.645Z,24.87
2022-11-21T01:57:41.191Z,28.93
2022-11-21T02:00:10.385Z,26.30
2022-11-21T02:02:41.398Z,28.37
2022-11-21T02:05:13.417Z,24.83
2022-11-21T02:07:43.117Z,26.33
2022-11-21T02:10:10.961Z,28.60
2022-11-21T02:12:55.595Z,26.63
2022-11-21T02:15:24.981Z,25.50
2022-11-21T02:17:51.628Z,23.50
2022-11-21T02:20:21.216Z,25.23
2022-11-21T02:23:03.098Z,25.20
2022-11-21T02:25:32.227Z,23.67
2022-11-21T02:28:03.039Z,26.40
2022-11-21T02:30:36.125Z,22.70
2022-11-21T02:33:03.477Z,23.73
2022-11-21T02:35:30.216Z,24.53
2022-11-21T02:38:06.810Z,24.90
2022-11-21T02:40:36.133Z,25.97
2022-11-21T02:43:30.717Z,27.50
2022-11-21T02:45:59.210Z,23.50
2022-11-21T02:48:25.932Z,25.90
2022-11-21T02:50:53.004Z,25.40
2022-11-21T02:53:19.776Z,24.50
2022-11-21T02:55:46.759Z,24.60
2022-11-21T02:58:13.788Z,26.03
2022-11-21T03:00:42.250Z,28.53
2022-11-21T03:03:09.628Z,26.67
2022-11-21T03:05:37.437Z,24.87
2022-11-21T03:08:05.275Z,25.30
2022-11-21T03:10:32.249Z,28.13
2022-11-21T03:13:02.190Z,26.87
2022-11-21T03:15:30.911Z,27.03
2022-11-21T03:17:58.004Z,32.60
2022-11-21T03:20:24.964Z,33.57
2022-11-21T03:22:53.348Z,30.43
2022-11-21T03:25:20.703Z,27.53
2022-11-21T03:27:51.989Z,27.67
2022-11-21T03:30:19.576Z,28.70
2022-11-21T03:32:46.749Z,27.40
2022-11-21T03:35:13.678Z,29.13
2022-11-21T03:37:40.752Z,30.97
2022-11-21T03:40:08.085Z,30.80
2022-11-21T03:42:35.057Z,27.10
2022-11-21T03:45:01.686Z,28.33
2022-11-21T03:47:28.637Z,28.30
2022-11-21T03:49:55.836Z,30.50
2022-11-21T03:52:22.629Z,28.97
2022-11-21T03:54:49.580Z,29.70
2022-11-21T03:57:16.351Z,34.80
2022-11-21T03:59:43.058Z,32.23
2022-11-21T04:02:09.747Z,33.53
2022-11-21T04:04:36.627Z,32.33
2022-11-21T04:07:03.392Z,32.80
2022-11-21T04:09:30.109Z,31.20
2022-11-21T04:11:57.098Z,31.77
2022-11-21T04:14:23.774Z,31.20
2022-11-21T04:16:50.535Z,31.30
2022-11-21T04:19:17.244Z,31.30
2022-11-21T04:21:43.972Z,34.70
2022-11-21T04:24:10.871Z,32.17
2022-11-21T04:26:37.539Z,31.70
2022-11-21T04:29:04.184Z,34.30
2022-11-21T04:31:30.886Z,34.00
2022-11-21T04:33:57.722Z,31.40
2022-11-21T04:36:24.758Z,25.60
2022-11-21T04:38:51.657Z,33.40
2022-11-21T04:41:18.264Z,29.80
2022-11-21T04:43:44.931Z,36.17
2022-11-21T04:46:11.572Z,28.97
2022-11-21T04:48:38.335Z,33.70
2022-11-21T04:51:05.370Z,35.27
2022-11-21T04:53:32.112Z,29.80
2022-11-21T04:56:00.028Z,31.27
2022-11-21T04:58:26.796Z,37.00
2022-11-21T05:00:53.788Z,33.50
2022-11-21T05:03:20.652Z,32.40
2022-11-21T05:05:47.878Z,34.03
2022-11-21T05:08:15.017Z,31.80
2022-11-21T05:11:02.295Z,38.07
2022-11-21T05:13:28.932Z,27.30
2022-11-21T05:15:58.730Z,35.63
2022-11-21T05:18:25.689Z,33.33
2022-11-21T05:20:52.346Z,36.20
2022-11-21T05:23:19.005Z,32.03
2022-11-21T05:25:45.926Z,26.23
2022-11-21T05:28:12.682Z,31.63
2022-11-21T05:30:39.624Z,33.20
2022-11-21T05:33:06.986Z,30.30
2022-11-21T05:35:33.762Z,32.50
2022-11-21T05:38:00.621Z,32.67
2022-11-21T05:40:27.498Z,31.77
2022-11-21T05:43:12.812Z,32.17
2022-11-21T05:45:39.525Z,34.40
2022-11-21T05:48:08.010Z,35.03
2022-11-21T05:50:37.763Z,35.20
2022-11-21T05:53:05.178Z,37.20
2022-11-21T05:55:34.304Z,34.10
2022-11-21T05:58:01.538Z,33.23
2022-11-21T06:00:29.544Z,37.00
2022-11-21T06:03:15.408Z,36.40
2022-11-21T06:05:42.254Z,32.70
2022-11-21T06:08:08.998Z,32.77
2022-11-21T06:10:36.133Z,35.30
2022-11-21T06:13:03.596Z,37.90
2022-11-21T06:15:30.375Z,33.10
2022-11-21T06:17:59.893Z,39.00
2022-11-21T06:20:26.711Z,39.10
2022-11-21T06:22:53.697Z,36.53
2022-11-21T06:25:20.404Z,39.53
2022-11-21T06:27:47.617Z,44.57
2022-11-21T06:30:20.681Z,44.77
2022-11-21T06:32:48.774Z,40.47
2022-11-21T06:35:16.657Z,42.67
2022-11-21T06:37:43.458Z,49.17
2022-11-21T06:40:10.899Z,42.40
2022-11-21T06:42:38.446Z,35.90
2022-11-21T06:45:05.648Z,50.57
2022-11-21T06:47:35.883Z,42.63
2022-11-21T06:50:02.813Z,40.50
2022-11-21T06:52:33.546Z,43.97
2022-11-21T06:55:00.242Z,44.17
2022-11-21T06:57:27.315Z,44.60
2022-11-21T06:59:54.102Z,48.03
2022-11-21T07:02:20.884Z,43.13
2022-11-21T07:04:47.871Z,48.27
2022-11-21T07:07:14.533Z,60.63
2022-11-21T07:09:41.240Z,54.07
2022-11-21T07:12:27.658Z,48.53
2022-11-21T07:14:54.315Z,55.20
2022-11-21T07:17:21.367Z,44.07
2022-11-21T07:19:48.103Z,65.87
2022-11-21T07:22:14.965Z,56.40
2022-11-21T07:24:41.693Z,46.57
2022-11-21T07:27:08.333Z,59.20
2022-11-21T07:29:35.215Z,46.03
2022-11-21T07:32:02.224Z,45.13
2022-11-21T07:34:29.297Z,45.80
2022-11-21T07:36:56.090Z,45.33
2022-11-21T07:39:23.107Z,54.40
2022-11-21T07:41:49.810Z,55.10
2022-11-21T07:44:16.539Z,47.40
2022-11-21T07:46:43.342Z,55.53
2022-11-21T07:49:10.004Z,51.30
2022-11-21T07:51:37.861Z,46.00
2022-11-21T07:54:04.580Z,49.83
2022-11-21T07:56:31.312Z,49.83
2022-11-21T07:58:58.160Z,49.33
2022-11-21T08:01:24.863Z,55.73
2022-11-21T08:03:51.889Z,48.77
2022-11-21T08:06:18.649Z,49.27
2022-11-21T08:08:45.712Z,51.27
2022-11-21T08:11:12.649Z,44.67
2022-11-21T08:13:39.347Z,50.57
2022-11-21T08:16:06.379Z,65.27
2022-11-21T08:18:34.478Z,50.37
2022-11-21T08:21:02.654Z,63.47
2022-11-21T08:23:29.518Z,59.53
2022-11-21T08:25:56.516Z,57.60
2022-11-21T08:28:23.224Z,50.70
2022-11-21T08:30:50.007Z,50.20
2022-11-21T08:33:16.754Z,42.77
2022-11-21T08:35:43.630Z,49.10
2022-11-21T08:38:10.341Z,56.80
2022-11-21T08:40:37.185Z,58.37
2022-11-21T08:43:09.086Z,50.53
2022-11-21T08:45:37.622Z,55.27
2022-11-21T08:48:08.984Z,48.80
2022-11-21T08:50:35.792Z,63.90
2022-11-21T08:53:03.001Z,60.17
2022-11-21T08:55:30.957Z,55.57
2022-11-21T08:57:57.948Z,50.10
2022-11-21T09:00:27.819Z,53.63
2022-11-21T09:02:56.495Z,73.80
2022-11-21T09:05:23.227Z,59.73
2022-11-21T09:07:57.418Z,59.83
2022-11-21T09:10:25.319Z,58.63
2022-11-21T09:12:52.472Z,54.13
2022-11-21T09:15:38.120Z,70.83
2022-11-21T09:18:05.732Z,58.00
2022-11-21T09:20:36.639Z,59.97
2022-11-21T09:23:08.642Z,61.13
2022-11-21T09:25:35.650Z,54.70
2022-11-21T09:28:03.694Z,56.20
2022-11-21T09:30:30.705Z,76.77
2022-11-21T09:33:19.409Z,65.37
2022-11-21T09:35:46.084Z,69.97
2022-11-21T09:38:13.043Z,64.27
2022-11-21T09:40:45.621Z,66.03
2022-11-21T09:43:40.841Z,69.13
2022-11-21T09:46:20.557Z,68.40
2022-11-21T09:48:47.212Z,67.90
2022-11-21T09:51:16.893Z,73.10
2022-11-21T09:53:55.345Z,66.43
2022-11-21T09:56:24.066Z,79.70
2022-11-21T09:59:18.491Z,79.27
2022-11-21T10:01:45.332Z,79.93
2022-11-21T10:04:12.285Z,77.67
2022-11-21T10:07:03.090Z,71.80
2022-11-21T10:09:54.585Z,80.60
2022-11-21T10:12:38.089Z,94.33
2022-11-21T10:15:29.402Z,98.30
2022-11-21T10:18:07.869Z,91.13
2022-11-21T10:20:46.946Z,101.23
2022-11-21T10:23:17.152Z,97.80
2022-11-21T10:25:54.727Z,94.80
2022-11-21T10:28:37.220Z,99.57
2022-11-21T10:31:08.782Z,87.40
2022-11-21T10:33:40.351Z,89.63
2022-11-21T10:36:30.393Z,93.83
2022-11-21T10:39:10.414Z,97.87
2022-11-21T10:41:58.827Z,85.53
2022-11-21T10:44:46.614Z,78.23
2022-11-21T10:47:27.667Z,90.60
2022-11-21T10:50:10.024Z,97.90
2022-11-21T10:52:54.408Z,74.37
2022-11-21T10:55:21.105Z,83.07
2022-11-21T10:57:50.476Z,82.03
2022-11-21T11:00:20.222Z,83.97
2022-11-21T11:03:15.975Z,72.43
2022-11-21T11:05:55.657Z,80.63
2022-11-21T11:08:22.353Z,90.73
2022-11-21T11:11:07.497Z,76.50
2022-11-21T11:13:57.068Z,84.77
2022-11-21T11:16:26.014Z,76.53
2022-11-21T11:19:01.941Z,85.87
2022-11-21T11:21:49.582Z,65.10
2022-11-21T11:24:16.261Z,58.83
2022-11-21T11:26:49.417Z,55.77
2022-11-21T11:29:16.306Z,59.83
2022-11-21T11:31:58.073Z,56.43
2022-11-21T11:34:55.300Z,56.10
2022-11-21T11:37:51.056Z,44.97
2022-11-21T11:40:36.140Z,44.90
2022-11-21T11:43:59.677Z,45.97
2022-11-21T11:47:10.513Z,33.53
2022-11-21T11:50:18.377Z,36.03
2022-11-21T11:53:03.524Z,27.73
2022-11-21T11:55:37.198Z,30.60
2022-11-21T11:58:11.974Z,22.60
2022-11-21T12:00:44.882Z,32.57
2022-11-21T12:03:18.077Z,26.37
2022-11-21T12:06:09.123Z,32.47
2022-11-21T12:08:59.731Z,29.73
2022-11-21T12:11:57.114Z,22.20
2022-11-21T12:15:05.573Z,29.20
2022-11-21T12:17:41.537Z,18.97
2022-11-21T12:20:20.562Z,25.17
2022-11-21T12:22:50.038Z,19.80
2022-11-21T12:25:18.341Z,25.80
2022-11-21T12:27:51.168Z,16.40
2022-11-21T12:30:24.060Z,22.13
2022-11-21T12:33:08.486Z,22.27
2022-11-21T12:35:44.724Z,19.47
2022-11-21T12:38:45.142Z,21.70
2022-11-21T12:41:42.944Z,19.50
2022-11-21T12:44:31.626Z,18.80
2022-11-21T12:47:24.713Z,20.40
2022-11-21T12:50:37.337Z,15.57
2022-11-21T12:53:50.792Z,17.37
2022-11-21T12:56:33.899Z,12.77
2022-11-21T12:59:02.635Z,14.43
2022-11-21T13:01:52.488Z,16.47
2022-11-21T13:04:26.520Z,17.07
2022-11-21T13:06:55.544Z,14.20
2022-11-21T13:09:24.094Z,14.70
2022-11-21T13:12:14.893Z,14.13
2022-11-21T13:14:53.672Z,14.40
2022-11-21T13:17:40.060Z,12.10
2022-11-21T13:20:14.511Z,14.87
2022-11-21T13:25:33.787Z,15.17
2022-11-21T13:28:19.085Z,16.73
2022-11-21T13:30:50.386Z,18.80
2022-11-21T13:33:35.665Z,20.67
2022-11-21T13:36:11.386Z,15.00
2022-11-21T13:38:58.444Z,21.50
2022-11-21T13:41:52.515Z,18.83
2022-11-21T13:44:31.447Z,21.00
2022-11-21T13:47:13.332Z,20.90
2022-11-21T13:50:34.456Z,21.47
2022-11-21T13:53:22.339Z,21.67
2022-11-21T13:56:31.813Z,23.60
2022-11-21T13:59:20.601Z,32.43
2022-11-21T14:02:34.155Z,23.93
2022-11-21T14:05:03.649Z,25.30
2022-11-21T14:07:35.134Z,22.40
2022-11-21T14:10:04.519Z,24.83
2022-11-21T14:12:44.093Z,28.33
2022-11-21T14:15:34.416Z,29.30
2022-11-21T14:18:02.066Z,27.80
2022-11-21T14:20:54.303Z,26.13
2022-11-21T14:23:23.288Z,30.43
2022-11-21T14:26:19.994Z,35.10
2022-11-21T14:28:47.682Z,30.23
2022-11-21T14:31:15.709Z,28.40
2022-11-21T14:33:44.409Z,27.47
2022-11-21T14:36:38.296Z,28.27
2022-11-21T14:42:06.590Z,28.97
2022-11-21T14:44:33.322Z,24.20
2022-11-21T14:47:24.666Z,28.97
2022-11-21T14:49:55.269Z,26.40
2022-11-21T14:52:33.639Z,19.13
2022-11-21T14:55:30.168Z,21.67
2022-11-21T14:57:56.011Z,20.90
2022-11-21T15:03:20.875Z,30.40
2022-11-21T15:06:03.992Z,21.93
2022-11-21T15:09:52.807Z,39.30
2022-11-21T15:11:29.482Z,26.40
2022-11-21T15:14:18.056Z,24.33
2022-11-21T15:16:52.150Z,24.00
2022-11-21T15:19:25.538Z,19.00
2022-11-21T15:21:54.941Z,20.03
2022-11-21T15:24:37.675Z,18.47
2022-11-21T15:27:27.368Z,19.43
2022-11-21T15:30:09.593Z,19.57
2022-11-21T15:33:14.475Z,15.37
2022-11-21T15:35:43.151Z,22.63
2022-11-21T15:38:42.043Z,14.20
2022-11-21T15:41:09.200Z,15.93
2022-11-21T15:43:50.712Z,20.07
2022-11-21T15:46:26.152Z,23.30
2022-11-21T15:48:54.439Z,21.53
2022-11-21T15:51:51.223Z,20.50
2022-11-21T15:54:15.951Z,18.63
2022-11-21T15:56:43.028Z,22.37
2022-11-21T15:59:10.556Z,23.43
2022-11-21T16:01:37.662Z,17.57
2022-11-21T16:04:07.919Z,22.40
2022-11-21T16:06:35.237Z,26.57
2022-11-21T16:09:02.768Z,20.33
2022-11-21T16:11:30.793Z,21.13
2022-11-21T16:13:59.821Z,28.80
2022-11-21T16:16:28.972Z,25.70
2022-11-21T16:18:56.704Z,20.90
2022-11-21T16:21:24.302Z,26.77
2022-11-21T16:23:51.558Z,21.27
2022-11-21T16:26:19.153Z,19.70
2022-11-21T16:28:47.069Z,17.40
2022-11-21T16:31:21.948Z,17.00
2022-11-21T16:33:48.643Z,19.20
2022-11-21T16:36:24.114Z,18.97
2022-11-21T16:38:51.568Z,17.67
2022-11-21T16:41:19.975Z,20.03
2022-11-21T16:43:49.826Z,15.23
2022-11-21T16:46:17.535Z,18.23
2022-11-21T16:48:45.003Z,19.13
2022-11-21T16:51:20.122Z,15.43
2022-11-21T16:53:48.497Z,19.53
2022-11-21T16:56:15.811Z,16.80
2022-11-21T16:58:43.292Z,22.80
2022-11-21T17:01:12.968Z,16.47
2022-11-21T17:03:40.834Z,13.00
2022-11-21T17:06:08.244Z,18.90
2022-11-21T17:08:36.260Z,14.30
2022-11-21T17:11:28.174Z,18.20
2022-11-21T17:13:56.903Z,10.70
2022-11-21T17:16:23.827Z,13.30
2022-11-21T17:18:55.186Z,17.10
2022-11-21T17:21:22.477Z,12.03
2022-11-21T17:23:49.704Z,18.00
2022-11-21T17:26:19.042Z,11.30
2022-11-21T17:28:55.040Z,15.60
2022-11-21T17:31:22.486Z,14.77
2022-11-21T17:33:54.265Z,11.33
2022-11-21T17:36:23.825Z,13.33
2022-11-21T17:38:51.545Z,14.07
2022-11-21T17:41:20.057Z,15.87
2022-11-21T17:43:47.402Z,11.77
2022-11-21T17:46:18.534Z,16.50
2022-11-21T17:48:52.883Z,15.90
2022-11-21T17:51:24.051Z,13.60
2022-11-21T17:53:51.693Z,17.23
2022-11-21T17:56:23.321Z,14.33
2022-11-21T17:58:50.903Z,14.43
2022-11-21T18:01:21.011Z,23.47
2022-11-21T18:03:58.875Z,16.00
2022-11-21T18:06:28.326Z,16.30
2022-11-21T18:08:58.547Z,20.93
2022-11-21T18:11:30.264Z,14.90
2022-11-21T18:13:58.933Z,11.67
2022-11-21T18:16:28.667Z,13.60
2022-11-21T18:18:55.735Z,12.73
2022-11-21T18:21:24.743Z,15.40
2022-11-21T18:23:56.201Z,14.77
2022-11-21T18:26:28.670Z,11.90
2022-11-21T18:29:20.722Z,13.67
2022-11-21T18:31:44.963Z,18.70
2022-11-21T18:34:12.691Z,14.33
2022-11-21T18:36:39.423Z,13.60
2022-11-21T18:39:14.239Z,11.40
2022-11-21T18:41:42.049Z,11.67
2022-11-21T18:44:08.795Z,19.37
2022-11-21T18:46:38.248Z,14.20
2022-11-21T18:49:07.019Z,13.33
2022-11-21T18:51:35.405Z,16.00
2022-11-21T18:54:06.866Z,15.37
2022-11-21T18:56:33.601Z,15.37
2022-11-21T18:59:00.345Z,12.77
2022-11-21T19:01:29.303Z,10.33
2022-11-21T19:03:56.810Z,12.20
2022-11-21T19:06:25.257Z,12.67
2022-11-21T19:08:53.394Z,9.30
2022-11-21T19:11:21.435Z,13.53
2022-11-21T19:13:48.655Z,14.13
2022-11-21T19:16:17.724Z,12.33
2022-11-21T19:18:55.049Z,9.30
2022-11-21T19:21:31.201Z,10.13
2022-11-21T19:23:57.996Z,7.97
2022-11-21T19:26:24.747Z,8.40
2022-11-21T19:28:51.385Z,11.03
2022-11-21T19:31:19.015Z,10.83
2022-11-21T19:33:46.247Z,8.30
2022-11-21T19:36:14.508Z,10.67
2022-11-21T19:38:44.010Z,8.13
2022-11-21T19:41:22.391Z,7.50
2022-11-21T19:43:58.364Z,6.07
2022-11-21T19:46:33.545Z,6.70
2022-11-21T19:49:01.299Z,8.10
2022-11-21T19:51:30.298Z,6.80
2022-11-21T19:53:56.923Z,14.23
2022-11-21T19:56:25.593Z,11.53
2022-11-21T19:58:53.237Z,8.60
2022-11-21T20:01:22.724Z,7.00
2022-11-21T20:03:52.841Z,6.17
2022-11-21T20:06:22.211Z,9.23
2022-11-21T20:08:53.937Z,6.63
2022-11-21T20:11:21.875Z,9.63
2022-11-21T20:13:49.590Z,15.40
2022-11-21T20:16:21.080Z,10.00
2022-11-21T20:18:48.578Z,6.67
2022-11-21T20:21:17.715Z,5.40
2022-11-21T20:23:46.142Z,4.87
2022-11-21T20:26:13.924Z,6.80
2022-11-21T20:28:40.678Z,9.70
2022-11-21T20:31:14.971Z,12.47
2022-11-21T20:33:47.034Z,7.07
2022-11-21T20:36:17.421Z,7.00
2022-11-21T20:38:55.352Z,11.53
2022-11-21T20:41:24.984Z,5.67
2022-11-21T20:46:42.735Z,7.60
2022-11-21T20:49:09.756Z,8.23
2022-11-21T20:54:23.415Z,7.73
2022-11-21T20:56:50.084Z,4.13
2022-11-21T20:59:16.772Z,9.80
2022-11-21T21:01:43.488Z,9.20
2022-11-21T21:04:10.329Z,8.57
2022-11-21T21:06:38.051Z,7.10
2022-11-21T21:09:04.953Z,12.17
2022-11-21T21:11:50.975Z,5.70
2022-11-21T21:14:18.616Z,11.67
2022-11-21T21:16:46.394Z,8.20
2022-11-21T21:19:12.988Z,10.30
2022-11-21T21:21:41.546Z,9.07
2022-11-21T21:24:10.244Z,6.60
2022-11-21T21:26:42.483Z,5.93
2022-11-21T21:29:17.967Z,12.10
2022-11-21T21:31:50.617Z,5.63
2022-11-21T21:34:19.473Z,8.67
2022-11-21T21:36:46.439Z,9.53
2022-11-21T21:39:13.412Z,8.80
2022-11-21T21:41:44.181Z,6.93
2022-11-21T21:44:10.949Z,9.33
2022-11-21T21:46:37.822Z,10.50
2022-11-21T21:49:04.725Z,6.57
2022-11-21T21:51:32.170Z,6.20
2022-11-21T21:53:59.756Z,11.30
2022-11-21T21:56:28.110Z,5.70
2022-11-21T21:58:56.646Z,8.63
2022-11-21T22:01:31.946Z,9.77
2022-11-21T22:04:03.556Z,12.47
2022-11-21T22:06:32.882Z,8.00
2022-11-21T22:08:59.943Z,6.30
2022-11-21T22:11:28.889Z,5.50
2022-11-21T22:14:00.890Z,10.77
2022-11-21T22:16:28.439Z,11.07
2022-11-21T22:18:55.319Z,10.20
2022-11-21T22:21:27.950Z,8.63
2022-11-21T22:24:25.024Z,6.57
2022-11-21T22:26:42.794Z,9.30
2022-11-21T22:29:09.426Z,13.43
2022-11-21T22:31:36.148Z,8.80
2022-11-21T22:34:03.077Z,7.00
2022-11-21T22:36:29.811Z,15.43
2022-11-21T22:38:56.692Z,9.10
2022-11-21T22:41:25.482Z,7.33
2022-11-21T22:43:54.365Z,6.67
2022-11-21T22:46:21.915Z,8.40
2022-11-21T22:48:49.159Z,8.00
2022-11-21T22:51:19.191Z,8.40
2022-11-21T22:53:47.012Z,11.70
2022-11-21T22:56:16.744Z,8.47
2022-11-21T22:58:43.771Z,13.27
2022-11-21T23:01:16.300Z,8.43
2022-11-21T23:03:44.143Z,7.33
2022-11-21T23:06:13.665Z,5.63
2022-11-21T23:08:41.054Z,6.90
2022-11-21T23:11:40.672Z,7.00
2022-11-21T23:14:08.113Z,12.87
2022-11-21T23:16:34.752Z,6.80
2022-11-21T23:19:01.538Z,5.80
2022-11-21T23:21:28.198Z,7.83
2022-11-21T23:23:54.821Z,8.70
2022-11-21T23:26:21.540Z,6.90
2022-11-21T23:28:48.249Z,7.43
2022-11-21T23:31:15.268Z,6.87
2022-11-21T23:33:42.104Z,7.07
2022-11-21T23:36:08.928Z,6.07
2022-11-21T23:38:35.744Z,6.10
2022-11-21T23:41:02.376Z,8.73
2022-11-21T23:43:28.993Z,4.23
2022-11-21T23:45:55.773Z,6.73
2022-11-21T23:48:24.119Z,4.53
2022-11-21T23:50:51.328Z,9.40
2022-11-21T23:53:21.956Z,5.83
2022-11-21T23:55:49.290Z,5.60
2022-11-21T23:58:16.349Z,6.63
